sensor_id;sensor_type;location;lat;lon;timestamp;P1;durP1;ratioP1;P2;durP2;ratioP2
25615;SDS011;13482;48.234;13.006;2023-04-15T00:01:10;3.58;;;2.63;;
25615;SDS011;13482;48.234;13.006;2023-04-15T00:03:37;3.33;;;2.63;;
25615;SDS011;13482;48.234;13.006;2023-04-15T00:06:05;3.45;;;2.45;;
25615;SDS011;13482;48.234;13.006;2023-04-15T00:08:32;3.40;;;2.58;;
25615;SDS011;13482;48.234;13.006;2023-04-15T00:10:59;4.25;;;2.60;;
25615;SDS011;13482;48.234;13.006;2023-04-15T00:21:08;3.42;;;2.42;;
25615;SDS011;13482;48.234;13.006;2023-04-15T00:23:35;4.20;;;2.80;;
25615;SDS011;13482;48.234;13.006;2023-04-15T00:26:02;3.70;;;2.72;;
25615;SDS011;13482;48.234;13.006;2023-04-15T00:28:29;3.90;;;2.78;;
25615;SDS011;13482;48.234;13.006;2023-04-15T00:30:57;3.65;;;2.80;;
25615;SDS011;13482;48.234;13.006;2023-04-15T00:33:24;3.15;;;2.60;;
25615;SDS011;13482;48.234;13.006;2023-04-15T00:35:51;3.88;;;2.90;;
25615;SDS011;13482;48.234;13.006;2023-04-15T00:38:19;3.42;;;2.58;;
25615;SDS011;13482;48.234;13.006;2023-04-15T00:40:46;5.38;;;2.85;;
25615;SDS011;13482;48.234;13.006;2023-04-15T00:43:13;3.58;;;2.63;;
25615;SDS011;13482;48.234;13.006;2023-04-15T00:45:41;4.75;;;2.80;;
25615;SDS011;13482;48.234;13.006;2023-04-15T00:48:08;3.83;;;3.00;;
25615;SDS011;13482;48.234;13.006;2023-04-15T00:50:36;4.43;;;3.50;;
25615;SDS011;13482;48.234;13.006;2023-04-15T00:53:04;3.85;;;3.05;;
25615;SDS011;13482;48.234;13.006;2023-04-15T00:55:31;3.95;;;3.10;;
25615;SDS011;13482;48.234;13.006;2023-04-15T00:58:00;4.95;;;3.15;;
25615;SDS011;13482;48.234;13.006;2023-04-15T01:00:27;4.13;;;3.40;;
25615;SDS011;13482;48.234;13.006;2023-04-15T01:02:55;5.28;;;3.60;;
25615;SDS011;13482;48.234;13.006;2023-04-15T01:05:23;4.20;;;3.20;;
25615;SDS011;13482;48.234;13.006;2023-04-15T01:07:50;4.03;;;3.22;;
25615;SDS011;13482;48.234;13.006;2023-04-15T01:10:17;3.90;;;2.90;;
25615;SDS011;13482;48.234;13.006;2023-04-15T01:12:44;4.20;;;3.30;;
25615;SDS011;13482;48.234;13.006;2023-04-15T01:15:12;3.95;;;3.00;;
25615;SDS011;13482;48.234;13.006;2023-04-15T01:17:40;3.90;;;2.83;;
25615;SDS011;13482;48.234;13.006;2023-04-15T01:20:07;3.78;;;3.00;;
25615;SDS011;13482;48.234;13.006;2023-04-15T01:22:37;4.50;;;3.47;;
25615;SDS011;13482;48.234;13.006;2023-04-15T01:25:08;3.90;;;3.38;;
25615;SDS011;13482;48.234;13.006;2023-04-15T01:27:38;4.65;;;3.17;;
25615;SDS011;13482;48.234;13.006;2023-04-15T01:30:07;4.28;;;3.33;;
25615;SDS011;13482;48.234;13.006;2023-04-15T01:32:36;3.80;;;3.08;;
25615;SDS011;13482;48.234;13.006;2023-04-15T01:35:03;5.22;;;3.30;;
25615;SDS011;13482;48.234;13.006;2023-04-15T01:37:31;5.13;;;3.38;;
25615;SDS011;13482;48.234;13.006;2023-04-15T01:39:58;4.05;;;3.00;;
25615;SDS011;13482;48.234;13.006;2023-04-15T01:42:25;4.50;;;3.40;;
25615;SDS011;13482;48.234;13.006;2023-04-15T01:44:53;5.53;;;3.55;;
25615;SDS011;13482;48.234;13.006;2023-04-15T01:47:20;4.20;;;3.10;;
25615;SDS011;13482;48.234;13.006;2023-04-15T01:49:47;3.97;;;3.05;;
25615;SDS011;13482;48.234;13.006;2023-04-15T01:52:15;4.28;;;3.47;;
25615;SDS011;13482;48.234;13.006;2023-04-15T01:54:42;4.22;;;2.88;;
25615;SDS011;13482;48.234;13.006;2023-04-15T01:57:09;3.35;;;2.67;;
25615;SDS011;13482;48.234;13.006;2023-04-15T01:59:36;4.10;;;3.17;;
25615;SDS011;13482;48.234;13.006;2023-04-15T02:02:03;3.90;;;2.80;;
25615;SDS011;13482;48.234;13.006;2023-04-15T02:04:31;4.63;;;2.75;;
25615;SDS011;13482;48.234;13.006;2023-04-15T02:06:58;3.35;;;2.50;;
25615;SDS011;13482;48.234;13.006;2023-04-15T02:09:26;3.33;;;2.58;;
25615;SDS011;13482;48.234;13.006;2023-04-15T02:11:53;4.13;;;3.22;;
25615;SDS011;13482;48.234;13.006;2023-04-15T02:14:20;4.20;;;3.13;;
25615;SDS011;13482;48.234;13.006;2023-04-15T02:16:47;4.25;;;2.80;;
25615;SDS011;13482;48.234;13.006;2023-04-15T02:19:14;3.47;;;2.97;;
25615;SDS011;13482;48.234;13.006;2023-04-15T02:21:41;4.82;;;3.20;;
25615;SDS011;13482;48.234;13.006;2023-04-15T02:24:09;3.72;;;3.03;;
25615;SDS011;13482;48.234;13.006;2023-04-15T02:26:37;4.05;;;3.17;;
25615;SDS011;13482;48.234;13.006;2023-04-15T02:29:04;4.05;;;3.00;;
25615;SDS011;13482;48.234;13.006;2023-04-15T02:31:32;4.90;;;3.55;;
25615;SDS011;13482;48.234;13.006;2023-04-15T02:34:02;4.05;;;3.20;;
25615;SDS011;13482;48.234;13.006;2023-04-15T02:36:30;4.40;;;3.30;;
25615;SDS011;13482;48.234;13.006;2023-04-15T02:38:57;3.90;;;2.80;;
25615;SDS011;13482;48.234;13.006;2023-04-15T02:41:24;4.43;;;3.40;;
25615;SDS011;13482;48.234;13.006;2023-04-15T02:43:54;5.78;;;3.55;;
25615;SDS011;13482;48.234;13.006;2023-04-15T02:46:22;5.68;;;3.75;;
25615;SDS011;13482;48.234;13.006;2023-04-15T02:48:49;4.15;;;3.28;;
25615;SDS011;13482;48.234;13.006;2023-04-15T02:51:19;4.30;;;3.28;;
25615;SDS011;13482;48.234;13.006;2023-04-15T02:53:48;4.32;;;3.17;;
25615;SDS011;13482;48.234;13.006;2023-04-15T02:56:15;4.50;;;3.30;;
25615;SDS011;13482;48.234;13.006;2023-04-15T02:58:44;4.28;;;3.10;;
25615;SDS011;13482;48.234;13.006;2023-04-15T03:01:12;5.45;;;3.60;;
25615;SDS011;13482;48.234;13.006;2023-04-15T03:03:40;4.28;;;2.95;;
25615;SDS011;13482;48.234;13.006;2023-04-15T03:06:07;4.32;;;3.00;;
25615;SDS011;13482;48.234;13.006;2023-04-15T03:08:34;4.70;;;3.40;;
25615;SDS011;13482;48.234;13.006;2023-04-15T03:11:02;4.38;;;3.30;;
25615;SDS011;13482;48.234;13.006;2023-04-15T03:13:30;5.57;;;3.78;;
25615;SDS011;13482;48.234;13.006;2023-04-15T03:15:57;5.05;;;3.42;;
25615;SDS011;13482;48.234;13.006;2023-04-15T03:18:24;5.00;;;3.70;;
25615;SDS011;13482;48.234;13.006;2023-04-15T03:20:51;3.78;;;3.00;;
25615;SDS011;13482;48.234;13.006;2023-04-15T03:23:19;4.07;;;3.58;;
25615;SDS011;13482;48.234;13.006;2023-04-15T03:25:46;5.68;;;3.50;;
25615;SDS011;13482;48.234;13.006;2023-04-15T03:28:13;4.65;;;3.20;;
25615;SDS011;13482;48.234;13.006;2023-04-15T03:30:40;4.60;;;3.15;;
25615;SDS011;13482;48.234;13.006;2023-04-15T03:33:07;4.82;;;3.22;;
25615;SDS011;13482;48.234;13.006;2023-04-15T03:35:34;5.13;;;3.50;;
25615;SDS011;13482;48.234;13.006;2023-04-15T03:38:01;5.07;;;3.28;;
25615;SDS011;13482;48.234;13.006;2023-04-15T03:40:28;4.50;;;3.40;;
25615;SDS011;13482;48.234;13.006;2023-04-15T03:42:56;4.10;;;3.30;;
25615;SDS011;13482;48.234;13.006;2023-04-15T03:45:23;4.18;;;3.08;;
25615;SDS011;13482;48.234;13.006;2023-04-15T03:47:50;4.65;;;3.05;;
25615;SDS011;13482;48.234;13.006;2023-04-15T03:50:18;4.70;;;3.38;;
25615;SDS011;13482;48.234;13.006;2023-04-15T03:52:45;4.18;;;3.30;;
25615;SDS011;13482;48.234;13.006;2023-04-15T03:55:13;3.90;;;3.10;;
25615;SDS011;13482;48.234;13.006;2023-04-15T03:57:41;4.00;;;3.05;;
25615;SDS011;13482;48.234;13.006;2023-04-15T04:00:08;4.10;;;3.22;;
25615;SDS011;13482;48.234;13.006;2023-04-15T04:02:36;6.20;;;3.20;;
25615;SDS011;13482;48.234;13.006;2023-04-15T04:05:03;4.50;;;3.35;;
25615;SDS011;13482;48.234;13.006;2023-04-15T04:07:30;4.22;;;3.22;;
25615;SDS011;13482;48.234;13.006;2023-04-15T04:09:57;3.88;;;2.80;;
25615;SDS011;13482;48.234;13.006;2023-04-15T04:12:25;4.28;;;3.22;;
25615;SDS011;13482;48.234;13.006;2023-04-15T04:14:52;5.18;;;3.53;;
25615;SDS011;13482;48.234;13.006;2023-04-15T04:17:19;4.45;;;3.28;;
25615;SDS011;13482;48.234;13.006;2023-04-15T04:19:46;4.30;;;3.67;;
25615;SDS011;13482;48.234;13.006;2023-04-15T04:22:13;4.32;;;3.60;;
25615;SDS011;13482;48.234;13.006;2023-04-15T04:24:40;5.13;;;3.65;;
25615;SDS011;13482;48.234;13.006;2023-04-15T04:27:07;5.30;;;3.45;;
25615;SDS011;13482;48.234;13.006;2023-04-15T04:29:34;5.25;;;3.50;;
25615;SDS011;13482;48.234;13.006;2023-04-15T04:32:02;4.13;;;3.20;;
25615;SDS011;13482;48.234;13.006;2023-04-15T04:34:29;4.40;;;3.20;;
25615;SDS011;13482;48.234;13.006;2023-04-15T04:36:57;5.93;;;4.10;;
25615;SDS011;13482;48.234;13.006;2023-04-15T04:39:25;4.68;;;3.45;;
25615;SDS011;13482;48.234;13.006;2023-04-15T04:41:52;4.95;;;3.80;;
25615;SDS011;13482;48.234;13.006;2023-04-15T04:44:19;4.88;;;3.70;;
25615;SDS011;13482;48.234;13.006;2023-04-15T04:46:46;5.63;;;4.18;;
25615;SDS011;13482;48.234;13.006;2023-04-15T04:49:13;4.97;;;3.75;;
25615;SDS011;13482;48.234;13.006;2023-04-15T04:51:40;6.38;;;3.80;;
25615;SDS011;13482;48.234;13.006;2023-04-15T04:54:08;5.55;;;4.22;;
25615;SDS011;13482;48.234;13.006;2023-04-15T04:56:35;5.75;;;4.90;;
25615;SDS011;13482;48.234;13.006;2023-04-15T04:59:04;6.40;;;4.80;;
25615;SDS011;13482;48.234;13.006;2023-04-15T05:01:32;6.03;;;4.50;;
25615;SDS011;13482;48.234;13.006;2023-04-15T05:03:59;5.53;;;4.22;;
25615;SDS011;13482;48.234;13.006;2023-04-15T05:06:27;5.22;;;4.38;;
25615;SDS011;13482;48.234;13.006;2023-04-15T05:08:55;6.13;;;4.60;;
25615;SDS011;13482;48.234;13.006;2023-04-15T05:11:23;5.38;;;4.40;;
25615;SDS011;13482;48.234;13.006;2023-04-15T05:13:50;6.82;;;4.90;;
25615;SDS011;13482;48.234;13.006;2023-04-15T05:16:17;5.65;;;4.68;;
25615;SDS011;13482;48.234;13.006;2023-04-15T05:18:46;5.80;;;4.57;;
25615;SDS011;13482;48.234;13.006;2023-04-15T05:21:13;5.97;;;4.72;;
25615;SDS011;13482;48.234;13.006;2023-04-15T05:23:40;6.32;;;4.82;;
25615;SDS011;13482;48.234;13.006;2023-04-15T05:26:07;5.70;;;4.82;;
25615;SDS011;13482;48.234;13.006;2023-04-15T05:28:35;5.35;;;4.18;;
25615;SDS011;13482;48.234;13.006;2023-04-15T05:31:03;5.47;;;4.72;;
25615;SDS011;13482;48.234;13.006;2023-04-15T05:33:30;4.88;;;3.83;;
25615;SDS011;13482;48.234;13.006;2023-04-15T05:35:57;5.25;;;4.10;;
25615;SDS011;13482;48.234;13.006;2023-04-15T05:38:24;4.70;;;3.85;;
25615;SDS011;13482;48.234;13.006;2023-04-15T05:40:52;4.40;;;3.70;;
25615;SDS011;13482;48.234;13.006;2023-04-15T05:43:19;4.50;;;3.50;;
25615;SDS011;13482;48.234;13.006;2023-04-15T05:45:46;3.70;;;3.15;;
25615;SDS011;13482;48.234;13.006;2023-04-15T05:48:13;3.92;;;3.20;;
25615;SDS011;13482;48.234;13.006;2023-04-15T05:50:41;3.92;;;3.25;;
25615;SDS011;13482;48.234;13.006;2023-04-15T05:53:08;4.20;;;3.38;;
25615;SDS011;13482;48.234;13.006;2023-04-15T05:55:36;5.45;;;4.40;;
25615;SDS011;13482;48.234;13.006;2023-04-15T05:58:03;6.30;;;4.95;;
25615;SDS011;13482;48.234;13.006;2023-04-15T06:00:30;5.72;;;4.90;;
25615;SDS011;13482;48.234;13.006;2023-04-15T06:02:57;5.55;;;4.30;;
25615;SDS011;13482;48.234;13.006;2023-04-15T06:05:25;4.75;;;3.70;;
25615;SDS011;13482;48.234;13.006;2023-04-15T06:07:53;6.43;;;4.60;;
25615;SDS011;13482;48.234;13.006;2023-04-15T06:10:20;5.25;;;4.40;;
25615;SDS011;13482;48.234;13.006;2023-04-15T06:12:47;5.85;;;4.32;;
25615;SDS011;13482;48.234;13.006;2023-04-15T06:15:14;4.65;;;3.90;;
25615;SDS011;13482;48.234;13.006;2023-04-15T06:17:42;4.32;;;3.30;;
25615;SDS011;13482;48.234;13.006;2023-04-15T06:20:09;4.05;;;3.33;;
25615;SDS011;13482;48.234;13.006;2023-04-15T06:22:37;4.05;;;3.17;;
25615;SDS011;13482;48.234;13.006;2023-04-15T06:25:05;4.93;;;3.63;;
25615;SDS011;13482;48.234;13.006;2023-04-15T06:27:34;5.28;;;3.70;;
25615;SDS011;13482;48.234;13.006;2023-04-15T06:30:02;4.13;;;3.30;;
25615;SDS011;13482;48.234;13.006;2023-04-15T06:32:30;3.55;;;2.83;;
25615;SDS011;13482;48.234;13.006;2023-04-15T06:34:58;4.50;;;3.45;;
25615;SDS011;13482;48.234;13.006;2023-04-15T06:37:25;4.00;;;2.92;;
25615;SDS011;13482;48.234;13.006;2023-04-15T06:39:52;4.15;;;3.40;;
25615;SDS011;13482;48.234;13.006;2023-04-15T06:42:19;3.40;;;2.80;;
25615;SDS011;13482;48.234;13.006;2023-04-15T06:44:47;4.07;;;2.85;;
25615;SDS011;13482;48.234;13.006;2023-04-15T06:47:14;2.50;;;2.10;;
25615;SDS011;13482;48.234;13.006;2023-04-15T06:49:41;2.42;;;2.00;;
25615;SDS011;13482;48.234;13.006;2023-04-15T06:52:09;2.63;;;1.85;;
25615;SDS011;13482;48.234;13.006;2023-04-15T06:54:36;2.60;;;2.00;;
25615;SDS011;13482;48.234;13.006;2023-04-15T06:57:03;2.45;;;1.75;;
25615;SDS011;13482;48.234;13.006;2023-04-15T06:59:32;2.50;;;2.00;;
25615;SDS011;13482;48.234;13.006;2023-04-15T07:01:59;2.17;;;1.60;;
25615;SDS011;13482;48.234;13.006;2023-04-15T07:04:27;3.13;;;1.80;;
25615;SDS011;13482;48.234;13.006;2023-04-15T07:06:54;2.13;;;1.15;;
25615;SDS011;13482;48.234;13.006;2023-04-15T07:09:22;2.15;;;1.65;;
25615;SDS011;13482;48.234;13.006;2023-04-15T07:11:50;1.92;;;1.50;;
25615;SDS011;13482;48.234;13.006;2023-04-15T07:14:17;1.90;;;1.30;;
25615;SDS011;13482;48.234;13.006;2023-04-15T07:16:44;2.20;;;1.40;;
25615;SDS011;13482;48.234;13.006;2023-04-15T07:19:12;2.00;;;1.30;;
25615;SDS011;13482;48.234;13.006;2023-04-15T07:21:39;1.92;;;1.38;;
25615;SDS011;13482;48.234;13.006;2023-04-15T07:24:07;1.80;;;1.30;;
25615;SDS011;13482;48.234;13.006;2023-04-15T07:26:35;2.28;;;1.40;;
25615;SDS011;13482;48.234;13.006;2023-04-15T07:29:02;3.45;;;1.67;;
25615;SDS011;13482;48.234;13.006;2023-04-15T07:31:29;2.88;;;1.60;;
25615;SDS011;13482;48.234;13.006;2023-04-15T07:33:57;2.17;;;1.63;;
25615;SDS011;13482;48.234;13.006;2023-04-15T07:36:25;2.20;;;1.60;;
25615;SDS011;13482;48.234;13.006;2023-04-15T07:38:52;2.20;;;1.20;;
25615;SDS011;13482;48.234;13.006;2023-04-15T07:41:20;2.10;;;1.52;;
25615;SDS011;13482;48.234;13.006;2023-04-15T07:43:49;1.67;;;1.00;;
25615;SDS011;13482;48.234;13.006;2023-04-15T07:46:16;1.58;;;1.20;;
25615;SDS011;13482;48.234;13.006;2023-04-15T07:48:43;2.90;;;1.30;;
25615;SDS011;13482;48.234;13.006;2023-04-15T07:51:10;1.75;;;1.23;;
25615;SDS011;13482;48.234;13.006;2023-04-15T07:53:38;1.88;;;1.20;;
25615;SDS011;13482;48.234;13.006;2023-04-15T07:56:05;2.30;;;1.23;;
25615;SDS011;13482;48.234;13.006;2023-04-15T07:58:32;2.05;;;1.30;;
25615;SDS011;13482;48.234;13.006;2023-04-15T08:00:59;1.63;;;1.17;;
25615;SDS011;13482;48.234;13.006;2023-04-15T08:03:27;2.67;;;1.63;;
25615;SDS011;13482;48.234;13.006;2023-04-15T08:05:54;2.60;;;1.58;;
25615;SDS011;13482;48.234;13.006;2023-04-15T08:08:21;3.17;;;1.60;;
25615;SDS011;13482;48.234;13.006;2023-04-15T08:10:49;2.55;;;1.70;;
25615;SDS011;13482;48.234;13.006;2023-04-15T08:13:18;2.10;;;1.50;;
25615;SDS011;13482;48.234;13.006;2023-04-15T08:15:52;1.83;;;1.30;;
25615;SDS011;13482;48.234;13.006;2023-04-15T08:18:41;2.97;;;1.60;;
25615;SDS011;13482;48.234;13.006;2023-04-15T08:21:08;2.20;;;1.40;;
25615;SDS011;13482;48.234;13.006;2023-04-15T08:23:37;2.10;;;1.50;;
25615;SDS011;13482;48.234;13.006;2023-04-15T08:26:04;2.53;;;1.83;;
25615;SDS011;13482;48.234;13.006;2023-04-15T08:28:32;2.50;;;1.70;;
25615;SDS011;13482;48.234;13.006;2023-04-15T08:30:59;1.90;;;1.48;;
25615;SDS011;13482;48.234;13.006;2023-04-15T08:33:26;2.33;;;1.63;;
25615;SDS011;13482;48.234;13.006;2023-04-15T08:35:54;2.15;;;1.60;;
25615;SDS011;13482;48.234;13.006;2023-04-15T08:38:21;2.25;;;1.55;;
25615;SDS011;13482;48.234;13.006;2023-04-15T08:40:49;2.45;;;1.60;;
25615;SDS011;13482;48.234;13.006;2023-04-15T08:43:20;2.20;;;1.50;;
25615;SDS011;13482;48.234;13.006;2023-04-15T08:45:52;3.10;;;1.50;;
25615;SDS011;13482;48.234;13.006;2023-04-15T08:48:20;2.05;;;1.52;;
25615;SDS011;13482;48.234;13.006;2023-04-15T08:50:49;2.00;;;1.50;;
25615;SDS011;13482;48.234;13.006;2023-04-15T08:53:17;2.25;;;1.52;;
25615;SDS011;13482;48.234;13.006;2023-04-15T08:55:49;2.45;;;1.80;;
25615;SDS011;13482;48.234;13.006;2023-04-15T08:58:18;2.67;;;1.83;;
25615;SDS011;13482;48.234;13.006;2023-04-15T09:00:45;2.50;;;1.85;;
25615;SDS011;13482;48.234;13.006;2023-04-15T09:03:14;2.38;;;1.63;;
25615;SDS011;13482;48.234;13.006;2023-04-15T09:05:43;2.10;;;1.67;;
25615;SDS011;13482;48.234;13.006;2023-04-15T09:08:10;2.00;;;1.50;;
25615;SDS011;13482;48.234;13.006;2023-04-15T09:10:37;2.38;;;1.60;;
25615;SDS011;13482;48.234;13.006;2023-04-15T09:13:05;2.30;;;1.73;;
25615;SDS011;13482;48.234;13.006;2023-04-15T09:15:32;2.17;;;1.48;;
25615;SDS011;13482;48.234;13.006;2023-04-15T09:18:04;3.03;;;1.55;;
25615;SDS011;13482;48.234;13.006;2023-04-15T09:20:39;2.42;;;1.70;;
25615;SDS011;13482;48.234;13.006;2023-04-15T09:23:11;2.75;;;1.95;;
25615;SDS011;13482;48.234;13.006;2023-04-15T09:25:40;2.00;;;1.50;;
25615;SDS011;13482;48.234;13.006;2023-04-15T09:28:08;3.72;;;2.00;;
25615;SDS011;13482;48.234;13.006;2023-04-15T09:30:36;3.50;;;1.80;;
25615;SDS011;13482;48.234;13.006;2023-04-15T09:33:03;2.72;;;1.90;;
25615;SDS011;13482;48.234;13.006;2023-04-15T09:35:34;3.03;;;1.90;;
25615;SDS011;13482;48.234;13.006;2023-04-15T09:38:05;2.63;;;1.90;;
25615;SDS011;13482;48.234;13.006;2023-04-15T09:40:36;2.90;;;2.13;;
25615;SDS011;13482;48.234;13.006;2023-04-15T09:43:08;3.45;;;2.35;;
25615;SDS011;13482;48.234;13.006;2023-04-15T09:45:38;2.67;;;2.07;;
25615;SDS011;13482;48.234;13.006;2023-04-15T09:48:22;3.22;;;2.30;;
25615;SDS011;13482;48.234;13.006;2023-04-15T09:50:56;2.67;;;2.15;;
25615;SDS011;13482;48.234;13.006;2023-04-15T09:53:24;2.97;;;2.15;;
25615;SDS011;13482;48.234;13.006;2023-04-15T09:55:57;2.67;;;1.85;;
25615;SDS011;13482;48.234;13.006;2023-04-15T09:58:29;3.22;;;2.13;;
25615;SDS011;13482;48.234;13.006;2023-04-15T10:00:59;2.97;;;2.20;;
25615;SDS011;13482;48.234;13.006;2023-04-15T10:03:30;3.55;;;2.20;;
25615;SDS011;13482;48.234;13.006;2023-04-15T10:06:01;3.35;;;2.33;;
25615;SDS011;13482;48.234;13.006;2023-04-15T10:08:30;2.60;;;2.08;;
25615;SDS011;13482;48.234;13.006;2023-04-15T10:11:00;2.90;;;2.00;;
25615;SDS011;13482;48.234;13.006;2023-04-15T10:13:29;2.97;;;2.20;;
25615;SDS011;13482;48.234;13.006;2023-04-15T10:16:06;3.60;;;2.13;;
25615;SDS011;13482;48.234;13.006;2023-04-15T10:18:52;3.65;;;2.28;;
25615;SDS011;13482;48.234;13.006;2023-04-15T10:21:21;3.85;;;2.35;;
25615;SDS011;13482;48.234;13.006;2023-04-15T10:23:49;2.67;;;2.00;;
25615;SDS011;13482;48.234;13.006;2023-04-15T10:26:16;3.50;;;2.60;;
25615;SDS011;13482;48.234;13.006;2023-04-15T10:28:44;3.53;;;2.65;;
25615;SDS011;13482;48.234;13.006;2023-04-15T10:31:13;3.78;;;2.90;;
25615;SDS011;13482;48.234;13.006;2023-04-15T10:33:41;3.78;;;2.70;;
25615;SDS011;13482;48.234;13.006;2023-04-15T10:36:11;4.53;;;2.97;;
25615;SDS011;13482;48.234;13.006;2023-04-15T10:38:42;4.20;;;2.95;;
25615;SDS011;13482;48.234;13.006;2023-04-15T10:41:19;3.63;;;2.78;;
25615;SDS011;13482;48.234;13.006;2023-04-15T10:44:00;3.80;;;2.90;;
25615;SDS011;13482;48.234;13.006;2023-04-15T10:46:37;3.67;;;2.60;;
25615;SDS011;13482;48.234;13.006;2023-04-15T10:49:13;3.97;;;2.88;;
25615;SDS011;13482;48.234;13.006;2023-04-15T10:51:43;4.68;;;2.88;;
25615;SDS011;13482;48.234;13.006;2023-04-15T10:57:05;4.25;;;3.10;;
25615;SDS011;13482;48.234;13.006;2023-04-15T11:06:08;4.22;;;2.97;;
25615;SDS011;13482;48.234;13.006;2023-04-15T11:08:17;4.30;;;3.00;;
25615;SDS011;13482;48.234;13.006;2023-04-15T11:13:16;3.28;;;2.50;;
25615;SDS011;13482;48.234;13.006;2023-04-15T11:15:48;3.38;;;2.70;;
25615;SDS011;13482;48.234;13.006;2023-04-15T11:18:21;4.25;;;2.38;;
25615;SDS011;13482;48.234;13.006;2023-04-15T11:20:55;2.75;;;2.20;;
25615;SDS011;13482;48.234;13.006;2023-04-15T11:23:40;3.50;;;2.28;;
25615;SDS011;13482;48.234;13.006;2023-04-15T11:26:12;3.35;;;2.55;;
25615;SDS011;13482;48.234;13.006;2023-04-15T11:28:41;3.05;;;2.40;;
25615;SDS011;13482;48.234;13.006;2023-04-15T11:33:55;3.63;;;2.90;;
25615;SDS011;13482;48.234;13.006;2023-04-15T11:36:25;3.28;;;2.33;;
25615;SDS011;13482;48.234;13.006;2023-04-15T11:38:58;3.05;;;2.28;;
25615;SDS011;13482;48.234;13.006;2023-04-15T11:41:25;4.72;;;3.00;;
25615;SDS011;13482;48.234;13.006;2023-04-15T11:43:52;4.00;;;2.80;;
25615;SDS011;13482;48.234;13.006;2023-04-15T11:46:20;3.80;;;2.83;;
25615;SDS011;13482;48.234;13.006;2023-04-15T11:48:53;4.38;;;2.85;;
25615;SDS011;13482;48.234;13.006;2023-04-15T11:51:21;4.10;;;3.15;;
25615;SDS011;13482;48.234;13.006;2023-04-15T11:53:48;5.43;;;3.20;;
25615;SDS011;13482;48.234;13.006;2023-04-15T11:56:21;3.40;;;2.70;;
25615;SDS011;13482;48.234;13.006;2023-04-15T11:58:51;3.80;;;3.08;;
25615;SDS011;13482;48.234;13.006;2023-04-15T12:01:32;3.03;;;2.33;;
25615;SDS011;13482;48.234;13.006;2023-04-15T12:04:25;4.25;;;2.72;;
25615;SDS011;13482;48.234;13.006;2023-04-15T12:06:53;3.95;;;2.80;;
25615;SDS011;13482;48.234;13.006;2023-04-15T12:09:21;3.28;;;2.55;;
25615;SDS011;13482;48.234;13.006;2023-04-15T12:11:49;2.97;;;2.38;;
25615;SDS011;13482;48.234;13.006;2023-04-15T12:16:54;3.38;;;2.17;;
25615;SDS011;13482;48.234;13.006;2023-04-15T12:19:28;3.47;;;2.42;;
25615;SDS011;13482;48.234;13.006;2023-04-15T12:21:59;3.40;;;2.30;;
25615;SDS011;13482;48.234;13.006;2023-04-15T12:24:32;3.50;;;2.53;;
25615;SDS011;13482;48.234;13.006;2023-04-15T12:27:10;3.08;;;2.38;;
25615;SDS011;13482;48.234;13.006;2023-04-15T12:29:41;3.05;;;2.00;;
25615;SDS011;13482;48.234;13.006;2023-04-15T12:32:10;3.88;;;2.20;;
25615;SDS011;13482;48.234;13.006;2023-04-15T12:34:49;3.65;;;2.33;;
25615;SDS011;13482;48.234;13.006;2023-04-15T12:37:17;2.63;;;2.08;;
25615;SDS011;13482;48.234;13.006;2023-04-15T12:39:47;2.70;;;2.10;;
25615;SDS011;13482;48.234;13.006;2023-04-15T12:42:15;3.85;;;2.60;;
25615;SDS011;13482;48.234;13.006;2023-04-15T12:44:44;3.70;;;2.42;;
25615;SDS011;13482;48.234;13.006;2023-04-15T12:47:12;3.92;;;2.58;;
25615;SDS011;13482;48.234;13.006;2023-04-15T12:49:40;3.70;;;2.70;;
25615;SDS011;13482;48.234;13.006;2023-04-15T12:52:07;3.30;;;2.60;;
25615;SDS011;13482;48.234;13.006;2023-04-15T12:54:35;3.30;;;2.47;;
25615;SDS011;13482;48.234;13.006;2023-04-15T12:57:02;2.90;;;2.30;;
25615;SDS011;13482;48.234;13.006;2023-04-15T12:59:33;4.05;;;2.78;;
25615;SDS011;13482;48.234;13.006;2023-04-15T13:02:01;3.53;;;2.40;;
25615;SDS011;13482;48.234;13.006;2023-04-15T13:04:29;2.78;;;2.22;;
25615;SDS011;13482;48.234;13.006;2023-04-15T13:06:57;2.80;;;2.08;;
25615;SDS011;13482;48.234;13.006;2023-04-15T13:09:24;3.28;;;2.20;;
25615;SDS011;13482;48.234;13.006;2023-04-15T13:11:52;3.13;;;2.40;;
25615;SDS011;13482;48.234;13.006;2023-04-15T13:14:20;3.10;;;2.20;;
25615;SDS011;13482;48.234;13.006;2023-04-15T13:16:47;3.65;;;2.20;;
25615;SDS011;13482;48.234;13.006;2023-04-15T13:19:14;2.65;;;2.10;;
25615;SDS011;13482;48.234;13.006;2023-04-15T13:21:41;2.72;;;2.00;;
25615;SDS011;13482;48.234;13.006;2023-04-15T13:24:09;2.80;;;2.03;;
25615;SDS011;13482;48.234;13.006;2023-04-15T13:26:36;3.03;;;2.00;;
25615;SDS011;13482;48.234;13.006;2023-04-15T13:29:03;3.08;;;2.30;;
25615;SDS011;13482;48.234;13.006;2023-04-15T13:31:31;2.78;;;2.10;;
25615;SDS011;13482;48.234;13.006;2023-04-15T13:33:58;3.35;;;2.28;;
25615;SDS011;13482;48.234;13.006;2023-04-15T13:36:26;2.20;;;1.70;;
25615;SDS011;13482;48.234;13.006;2023-04-15T13:38:53;3.05;;;2.25;;
25615;SDS011;13482;48.234;13.006;2023-04-15T13:41:21;2.78;;;2.03;;
25615;SDS011;13482;48.234;13.006;2023-04-15T13:43:48;2.67;;;2.25;;
25615;SDS011;13482;48.234;13.006;2023-04-15T13:46:15;3.90;;;2.40;;
25615;SDS011;13482;48.234;13.006;2023-04-15T13:48:43;2.78;;;2.10;;
25615;SDS011;13482;48.234;13.006;2023-04-15T13:51:10;3.00;;;2.20;;
25615;SDS011;13482;48.234;13.006;2023-04-15T13:53:37;3.45;;;2.17;;
25615;SDS011;13482;48.234;13.006;2023-04-15T13:56:05;2.85;;;2.28;;
25615;SDS011;13482;48.234;13.006;2023-04-15T13:58:34;2.97;;;2.17;;
25615;SDS011;13482;48.234;13.006;2023-04-15T14:01:03;3.45;;;2.17;;
25615;SDS011;13482;48.234;13.006;2023-04-15T14:03:33;2.78;;;2.17;;
25615;SDS011;13482;48.234;13.006;2023-04-15T14:06:02;3.08;;;2.58;;
25615;SDS011;13482;48.234;13.006;2023-04-15T14:08:31;3.70;;;2.45;;
25615;SDS011;13482;48.234;13.006;2023-04-15T14:10:58;3.83;;;2.35;;
25615;SDS011;13482;48.234;13.006;2023-04-15T14:13:26;3.20;;;2.70;;
25615;SDS011;13482;48.234;13.006;2023-04-15T14:15:53;3.45;;;2.53;;
25615;SDS011;13482;48.234;13.006;2023-04-15T14:18:20;3.40;;;2.60;;
25615;SDS011;13482;48.234;13.006;2023-04-15T14:20:48;3.33;;;2.42;;
25615;SDS011;13482;48.234;13.006;2023-04-15T14:23:15;3.55;;;2.70;;
25615;SDS011;13482;48.234;13.006;2023-04-15T14:25:42;3.50;;;2.63;;
25615;SDS011;13482;48.234;13.006;2023-04-15T14:28:13;3.78;;;2.97;;
25615;SDS011;13482;48.234;13.006;2023-04-15T14:30:40;4.30;;;3.30;;
25615;SDS011;13482;48.234;13.006;2023-04-15T14:33:08;3.92;;;3.25;;
25615;SDS011;13482;48.234;13.006;2023-04-15T14:35:35;4.15;;;3.40;;
25615;SDS011;13482;48.234;13.006;2023-04-15T14:38:03;3.70;;;3.20;;
25615;SDS011;13482;48.234;13.006;2023-04-15T14:40:32;3.90;;;3.20;;
25615;SDS011;13482;48.234;13.006;2023-04-15T14:42:59;3.60;;;2.67;;
25615;SDS011;13482;48.234;13.006;2023-04-15T14:45:26;3.97;;;2.95;;
25615;SDS011;13482;48.234;13.006;2023-04-15T14:47:53;4.72;;;2.97;;
25615;SDS011;13482;48.234;13.006;2023-04-15T14:50:21;3.70;;;2.90;;
25615;SDS011;13482;48.234;13.006;2023-04-15T14:52:48;3.40;;;2.63;;
25615;SDS011;13482;48.234;13.006;2023-04-15T14:55:16;3.50;;;2.90;;
25615;SDS011;13482;48.234;13.006;2023-04-15T14:57:43;4.00;;;3.10;;
25615;SDS011;13482;48.234;13.006;2023-04-15T15:00:10;3.40;;;2.90;;
25615;SDS011;13482;48.234;13.006;2023-04-15T15:02:41;3.75;;;2.90;;
25615;SDS011;13482;48.234;13.006;2023-04-15T15:05:09;5.03;;;2.88;;